createdAt,value
2022-09-30T00:01:03.008Z,100567.84
2022-09-30T00:03:36.477Z,100567.44
2022-09-30T00:06:09.226Z,100561.81
2022-09-30T00:08:41.444Z,100571.19
2022-09-30T00:11:19.499Z,100573.28
2022-09-30T00:13:52.229Z,100562.44
2022-09-30T00:16:25.618Z,100574.31
2022-09-30T00:18:58.751Z,100573.28
2022-09-30T00:21:30.791Z,100564.97
2022-09-30T00:24:04.375Z,100569.13
2022-09-30T00:26:36.544Z,100568.28
2022-09-30T00:29:10.095Z,100572.88
2022-09-30T00:31:42.502Z,100571.22
2022-09-30T00:34:14.417Z,100571.63
2022-09-30T00:36:49.052Z,100571.00
2022-09-30T00:39:28.989Z,100570.34
2022-09-30T00:42:03.515Z,100576.81
2022-09-30T00:44:55.292Z,100586.63
2022-09-30T00:47:35.974Z,100575.78
2022-09-30T00:50:25.584Z,100575.78
2022-09-30T00:53:23.718Z,100578.91
2022-09-30T00:56:08.380Z,100581.63
2022-09-30T00:58:48.172Z,100573.88
2022-09-30T01:01:21.140Z,100582.63
2022-09-30T01:04:16.926Z,100589.31
2022-09-30T01:06:49.795Z,100585.31
2022-09-30T01:09:22.013Z,100575.91
2022-09-30T01:11:54.120Z,100572.59
2022-09-30T01:14:27.336Z,100569.44
2022-09-30T01:17:14.940Z,100575.91
2022-09-30T01:20:11.842Z,100577.78
2022-09-30T01:22:51.356Z,100581.53
2022-09-30T01:25:38.906Z,100592.56
2022-09-30T01:28:13.683Z,100587.34
2022-09-30T01:31:04.021Z,100586.53
2022-09-30T01:33:45.987Z,100586.53
2022-09-30T01:36:32.569Z,100584.00
2022-09-30T01:39:16.636Z,100590.47
2022-09-30T01:41:55.505Z,100597.31
2022-09-30T01:44:49.781Z,100593.97
2022-09-30T01:47:26.928Z,100600.47
2022-09-30T01:50:06.237Z,100603.16
2022-09-30T01:52:53.518Z,100603.16
2022-09-30T01:55:31.246Z,100599.81
2022-09-30T01:58:18.760Z,100603.53
2022-09-30T02:00:53.648Z,100600.22
2022-09-30T02:03:39.878Z,100603.97
2022-09-30T02:06:20.901Z,100606.03
2022-09-30T02:09:03.349Z,100613.31
2022-09-30T02:11:37.088Z,100615.19
2022-09-30T02:14:08.886Z,100618.53
2022-09-30T02:16:43.572Z,100611.44
2022-09-30T02:19:18.148Z,100619.38
2022-09-30T02:21:57.328Z,100621.44
2022-09-30T02:24:37.128Z,100613.31
2022-09-30T02:27:12.638Z,100616.47
2022-09-30T02:29:49.769Z,100623.16
2022-09-30T02:32:31.082Z,100620.69
2022-09-30T02:35:08.522Z,100627.38
2022-09-30T02:37:46.385Z,100621.53
2022-09-30T02:40:31.867Z,100629.91
2022-09-30T02:43:05.120Z,100632.41
2022-09-30T02:46:13.425Z,100639.94
2022-09-30T02:49:11.664Z,100636.19
2022-09-30T02:51:58.344Z,100639.94
2022-09-30T02:54:30.141Z,100651.63
2022-09-30T02:57:34.426Z,100645.38
2022-09-30T03:00:11.943Z,100645.38
2022-09-30T03:02:46.640Z,100643.50
2022-09-30T03:05:18.558Z,100637.88
2022-09-30T03:07:50.704Z,100642.25
2022-09-30T03:10:22.852Z,100644.94
2022-09-30T03:13:12.707Z,100643.31
2022-09-30T03:16:10.856Z,100635.38
2022-09-30T03:19:26.843Z,100634.53
2022-09-30T03:22:26.266Z,100645.78
2022-09-30T03:25:19.711Z,100646.38
2022-09-30T03:28:11.699Z,100651.56
2022-09-30T03:31:06.707Z,100649.22
2022-09-30T03:34:02.601Z,100658.16
2022-09-30T03:36:36.874Z,100658.53
2022-09-30T03:39:23.910Z,100647.06
2022-09-30T03:42:07.971Z,100652.50
2022-09-30T03:45:03.172Z,100658.28
2022-09-30T03:47:40.904Z,100658.28
2022-09-30T03:50:18.876Z,100667.25
2022-09-30T03:52:51.084Z,100664.78
2022-09-30T03:55:24.074Z,100677.47
2022-09-30T03:57:57.704Z,100675.59
2022-09-30T04:00:30.177Z,100683.31
2022-09-30T04:03:02.041Z,100675.84
2022-09-30T04:05:33.974Z,100683.56
2022-09-30T04:08:05.919Z,100681.06
2022-09-30T04:10:40.752Z,100683.56
2022-09-30T04:13:12.952Z,100674.41
2022-09-30T04:15:44.753Z,100679.19
2022-09-30T04:18:16.764Z,100683.56
2022-09-30T04:20:48.882Z,100695.44
2022-09-30T04:23:20.978Z,100697.13
2022-09-30T04:25:55.627Z,100701.28
2022-09-30T04:28:27.571Z,100702.78
2022-09-30T04:31:01.093Z,100702.78
2022-09-30T04:33:33.593Z,100704.00
2022-09-30T04:36:06.180Z,100703.13
2022-09-30T04:38:38.020Z,100711.84
2022-09-30T04:41:16.115Z,100708.69
2022-09-30T04:43:48.529Z,100715.34
2022-09-30T04:46:22.580Z,100714.91
2022-09-30T04:48:54.395Z,100724.25
2022-09-30T04:51:27.324Z,100719.88
2022-09-30T04:53:59.178Z,100727.16
2022-09-30T04:56:31.046Z,100726.97
2022-09-30T04:59:02.879Z,100727.63
2022-09-30T05:01:35.413Z,100732.63
2022-09-30T05:04:08.228Z,100740.56
2022-09-30T05:06:40.886Z,100746.44
2022-09-30T05:09:12.949Z,100740.63
2022-09-30T05:11:44.834Z,100742.28
2022-09-30T05:14:16.757Z,100749.56
2022-09-30T05:16:48.568Z,100747.69
2022-09-30T05:19:20.587Z,100755.22
2022-09-30T05:21:52.507Z,100751.47
2022-09-30T05:24:24.558Z,100758.94
2022-09-30T05:26:56.489Z,100757.25
2022-09-30T05:29:28.268Z,100753.94
2022-09-30T05:32:00.245Z,100755.97
2022-09-30T05:34:32.353Z,100758.69
2022-09-30T05:37:04.221Z,100762.63
2022-09-30T05:39:36.699Z,100758.03
2022-09-30T05:42:13.272Z,100759.72
2022-09-30T05:44:46.353Z,100761.59
2022-09-30T05:47:18.309Z,100764.28
2022-09-30T05:49:53.068Z,100768.88
2022-09-30T05:52:28.505Z,100771.41
2022-09-30T05:55:01.787Z,100774.28
2022-09-30T05:57:33.660Z,100781.38
2022-09-30T06:00:06.543Z,100772.66
2022-09-30T06:18:41.448Z,100776.50
2022-09-30T06:21:15.655Z,100792.38
2022-09-30T06:23:47.632Z,100793.00
2022-09-30T06:26:19.595Z,100794.69
2022-09-30T06:28:51.842Z,100805.16
2022-09-30T06:31:23.790Z,100795.13
2022-09-30T06:33:57.163Z,100795.78
2022-09-30T06:36:29.346Z,100792.88
2022-09-30T06:39:01.881Z,100797.28
2022-09-30T06:41:39.825Z,100795.38
2022-09-30T06:44:12.857Z,100801.63
2022-09-30T06:46:53.280Z,100787.72
2022-09-30T06:49:30.773Z,100800.69
2022-09-30T06:52:12.992Z,100799.44
2022-09-30T06:54:44.904Z,100801.13
2022-09-30T06:57:22.288Z,100802.78
2022-09-30T06:59:54.565Z,100808.28
2022-09-30T07:02:26.686Z,100803.69
2022-09-30T07:04:58.650Z,100799.94
2022-09-30T07:07:33.537Z,100809.34
2022-09-30T07:10:05.977Z,100810.66
2022-09-30T07:12:37.961Z,100817.72
2022-09-30T07:15:13.575Z,100818.38
2022-09-30T07:17:51.084Z,100809.03
2022-09-30T07:20:23.532Z,100811.16
2022-09-30T07:22:55.630Z,100815.13
2022-09-30T07:25:27.891Z,100813.03
2022-09-30T07:27:59.837Z,100811.41
2022-09-30T07:30:31.723Z,100816.25
2022-09-30T07:33:04.127Z,100818.56
2022-09-30T07:35:36.614Z,100819.84
2022-09-30T07:38:08.992Z,100817.38
2022-09-30T07:40:42.657Z,100818.28
2022-09-30T07:43:19.058Z,100809.13
2022-09-30T07:45:51.532Z,100822.50
2022-09-30T07:48:39.574Z,100821.78
2022-09-30T07:51:33.402Z,100816.84
2022-09-30T07:54:07.764Z,100817.69
2022-09-30T07:57:08.224Z,100834.84
2022-09-30T07:59:35.831Z,100836.09
2022-09-30T08:02:15.797Z,100826.94
2022-09-30T08:04:47.686Z,100833.63
2022-09-30T08:07:19.919Z,100833.25
2022-09-30T08:09:51.798Z,100839.50
2022-09-30T08:12:23.625Z,100833.28
2022-09-30T08:14:55.770Z,100846.25
2022-09-30T08:17:27.631Z,100847.31
2022-09-30T08:19:59.757Z,100839.38
2022-09-30T08:22:31.568Z,100837.50
2022-09-30T08:25:03.881Z,100826.22
2022-09-30T08:27:36.058Z,100833.75
2022-09-30T08:30:08.851Z,100835.44
2022-09-30T08:32:40.753Z,100831.66
2022-09-30T08:35:12.539Z,100836.47
2022-09-30T08:37:44.387Z,100838.38
2022-09-30T08:40:22.777Z,100852.16
2022-09-30T08:43:31.938Z,100855.50
2022-09-30T08:46:47.005Z,100853.44
2022-09-30T08:49:21.596Z,100854.28
2022-09-30T08:51:54.042Z,100850.09
2022-09-30T08:54:30.627Z,100852.63
2022-09-30T08:57:03.932Z,100857.66
2022-09-30T08:59:41.190Z,100851.16
2022-09-30T09:02:17.741Z,100853.94
2022-09-30T09:04:52.160Z,100851.81
2022-09-30T09:07:52.186Z,100854.34
2022-09-30T09:10:45.595Z,100852.44
2022-09-30T09:13:44.490Z,100856.03
2022-09-30T09:16:33.065Z,100857.47
2022-09-30T09:19:15.458Z,100863.97
2022-09-30T09:21:52.519Z,100853.47
2022-09-30T09:24:45.194Z,100859.72
2022-09-30T09:27:19.374Z,100862.66
2022-09-30T09:30:12.571Z,100861.16
2022-09-30T09:32:50.114Z,100859.22
2022-09-30T09:35:31.445Z,100871.59
2022-09-30T09:38:26.000Z,100862.97
2022-09-30T09:41:12.983Z,100861.69
2022-09-30T09:43:58.274Z,100863.94
2022-09-30T09:46:42.129Z,100872.31
2022-09-30T09:49:13.887Z,100869.59
2022-09-30T09:52:14.722Z,100863.69
2022-09-30T09:54:50.885Z,100874.13
2022-09-30T09:57:28.015Z,100875.78
2022-09-30T10:00:21.294Z,100875.09
2022-09-30T10:03:18.885Z,100873.31
2022-09-30T10:06:10.779Z,100869.69
2022-09-30T10:08:56.634Z,100859.91
2022-09-30T10:11:29.259Z,100860.72
2022-09-30T10:14:01.389Z,100866.97
2022-09-30T10:16:37.817Z,100869.81
2022-09-30T10:19:21.461Z,100867.66
2022-09-30T10:22:08.188Z,100877.84
2022-09-30T10:24:40.502Z,100876.72
2022-09-30T10:27:40.670Z,100869.38
2022-09-30T10:30:12.655Z,100874.84
2022-09-30T10:32:44.672Z,100874.84
2022-09-30T10:35:21.803Z,100869.53
2022-09-30T10:37:54.620Z,100869.03
2022-09-30T10:40:29.145Z,100871.81
2022-09-30T10:43:00.989Z,100868.66
2022-09-30T10:45:36.694Z,100857.72
2022-09-30T10:48:17.574Z,100867.28
2022-09-30T10:50:51.759Z,100868.19
2022-09-30T10:53:29.794Z,100873.31
2022-09-30T10:56:05.341Z,100869.22
2022-09-30T10:58:43.397Z,100866.16
2022-09-30T11:01:22.832Z,100871.00
2022-09-30T11:04:22.206Z,100874.41
2022-09-30T11:07:30.503Z,100868.72
2022-09-30T11:10:21.906Z,100870.25
2022-09-30T11:13:12.055Z,100876.91
2022-09-30T11:16:20.577Z,100877.75
2022-09-30T11:19:09.006Z,100878.41
2022-09-30T11:21:49.455Z,100868.13
2022-09-30T11:24:24.850Z,100858.84
2022-09-30T11:27:10.489Z,100862.47
2022-09-30T11:29:53.926Z,100854.41
2022-09-30T11:32:31.503Z,100857.91
2022-09-30T11:35:14.987Z,100845.63
2022-09-30T11:38:18.570Z,100846.84
2022-09-30T11:41:15.771Z,100842.47
2022-09-30T11:44:09.105Z,100838.13
2022-09-30T11:46:53.363Z,100846.50
2022-09-30T11:49:44.104Z,100830.63
2022-09-30T11:52:28.332Z,100832.22
2022-09-30T11:55:23.532Z,100818.28
2022-09-30T11:58:22.354Z,100819.84
2022-09-30T12:01:05.773Z,100829.03
2022-09-30T12:03:42.637Z,100825.13
2022-09-30T12:06:36.511Z,100831.16
2022-09-30T12:09:15.996Z,100834.31
2022-09-30T12:11:56.267Z,100838.75
2022-09-30T12:14:31.311Z,100836.53
2022-09-30T12:17:07.121Z,100833.66
2022-09-30T12:19:46.929Z,100822.94
2022-09-30T12:22:40.321Z,100840.16
2022-09-30T12:25:21.675Z,100837.84
2022-09-30T12:27:55.688Z,100836.66
2022-09-30T12:30:29.173Z,100838.91
2022-09-30T12:33:22.220Z,100832.41
2022-09-30T12:36:07.336Z,100835.38
2022-09-30T12:38:48.175Z,100828.56
2022-09-30T12:41:26.724Z,100833.00
2022-09-30T12:44:36.322Z,100835.03
2022-09-30T12:47:34.643Z,100832.41
2022-09-30T12:50:08.722Z,100832.59
2022-09-30T12:52:40.833Z,100822.00
2022-09-30T12:55:28.100Z,100832.06
2022-09-30T12:58:01.735Z,100834.06
2022-09-30T13:00:34.972Z,100824.72
2022-09-30T13:03:15.283Z,100830.31
2022-09-30T13:05:52.837Z,100829.84
2022-09-30T13:08:33.585Z,100821.06
2022-09-30T13:11:06.443Z,100817.97
2022-09-30T13:13:59.439Z,100816.16
2022-09-30T13:17:01.294Z,100817.63
2022-09-30T13:19:59.318Z,100813.59
2022-09-30T13:22:31.380Z,100812.19
2022-09-30T13:25:10.735Z,100815.75
2022-09-30T13:27:55.330Z,100808.72
2022-09-30T13:30:32.219Z,100811.75
2022-09-30T13:33:26.285Z,100817.28
2022-09-30T13:36:06.441Z,100823.94
2022-09-30T13:38:40.626Z,100825.41
2022-09-30T13:41:24.435Z,100821.16
2022-09-30T13:44:02.358Z,100823.63
2022-09-30T13:46:43.405Z,100820.03
2022-09-30T13:49:25.699Z,100809.34
2022-09-30T13:51:57.711Z,100817.28
2022-09-30T13:54:34.121Z,100812.63
2022-09-30T13:57:08.306Z,100805.84
2022-09-30T14:00:01.341Z,100805.69
2022-09-30T14:03:07.180Z,100812.06
2022-09-30T14:06:02.916Z,100804.50
2022-09-30T14:08:43.251Z,100800.75
2022-09-30T14:11:25.548Z,100813.56
2022-09-30T14:14:12.545Z,100801.50
2022-09-30T14:17:00.906Z,100801.78
2022-09-30T14:19:42.401Z,100804.06
2022-09-30T14:22:15.170Z,100803.09
2022-09-30T14:24:50.278Z,100804.19
2022-09-30T14:27:31.552Z,100804.06
2022-09-30T14:30:23.943Z,100799.78
2022-09-30T14:33:04.278Z,100799.91
2022-09-30T14:35:37.694Z,100803.59
2022-09-30T14:38:19.350Z,100802.56
2022-09-30T14:40:53.310Z,100817.94
2022-09-30T14:43:37.773Z,100806.41
2022-09-30T14:46:35.988Z,100797.59
2022-09-30T14:49:13.775Z,100796.31
2022-09-30T14:51:47.126Z,100797.63
2022-09-30T14:54:22.715Z,100795.22
2022-09-30T14:56:55.595Z,100795.00
2022-09-30T14:59:33.220Z,100791.19
2022-09-30T15:02:16.898Z,100789.25
2022-09-30T15:04:53.185Z,100786.66
2022-09-30T15:07:25.964Z,100790.59
2022-09-30T15:10:01.326Z,100793.59
2022-09-30T15:12:36.844Z,100790.47
2022-09-30T15:15:35.179Z,100792.38
2022-09-30T15:18:43.266Z,100784.88
2022-09-30T15:21:16.176Z,100790.44
2022-09-30T15:23:53.335Z,100793.53
2022-09-30T15:26:26.942Z,100791.03
2022-09-30T15:28:58.973Z,100801.25
2022-09-30T15:31:32.251Z,100804.34
2022-09-30T15:34:06.322Z,100793.72
2022-09-30T15:36:38.653Z,100793.16
2022-09-30T15:39:22.958Z,100793.25
2022-09-30T15:41:54.953Z,100788.13
2022-09-30T15:44:39.494Z,100780.50
2022-09-30T15:47:11.559Z,100787.47
2022-09-30T15:49:49.865Z,100784.84
2022-09-30T15:52:39.640Z,100787.06
2022-09-30T15:55:38.217Z,100791.81
2022-09-30T15:58:38.044Z,100780.13
2022-09-30T16:01:21.570Z,100784.34
2022-09-30T16:03:59.139Z,100787.78
2022-09-30T16:06:46.115Z,100791.00
2022-09-30T16:09:18.593Z,100782.88
2022-09-30T16:12:05.945Z,100787.13
2022-09-30T16:14:49.354Z,100792.81
2022-09-30T16:17:27.970Z,100791.53
2022-09-30T16:20:01.878Z,100788.81
2022-09-30T16:22:42.855Z,100790.09
2022-09-30T16:25:33.663Z,100792.81
2022-09-30T16:28:13.987Z,100790.91
2022-09-30T16:30:47.802Z,100795.53
2022-09-30T16:33:19.767Z,100793.50
2022-09-30T16:35:51.856Z,100794.13
2022-09-30T16:38:23.835Z,100785.09
2022-09-30T16:40:56.482Z,100791.41
2022-09-30T16:43:28.492Z,100786.97
2022-09-30T16:46:01.091Z,100782.56
2022-09-30T16:48:35.082Z,100788.94
2022-09-30T16:51:13.729Z,100775.97
2022-09-30T16:53:47.880Z,100778.94
2022-09-30T16:56:20.772Z,100774.41
2022-09-30T16:58:52.741Z,100776.53
2022-09-30T17:01:26.127Z,100779.09
2022-09-30T17:03:58.526Z,100781.22
2022-09-30T17:06:32.065Z,100784.41
2022-09-30T17:09:05.139Z,100780.47
2022-09-30T17:11:38.333Z,100788.50
2022-09-30T17:14:10.460Z,100791.69
2022-09-30T17:16:42.429Z,100790.47
2022-09-30T17:19:14.620Z,100786.09
2022-09-30T17:21:46.477Z,100782.75
2022-09-30T17:24:18.334Z,100781.53
2022-09-30T17:26:50.855Z,100783.63
2022-09-30T17:29:32.395Z,100793.34
2022-09-30T17:32:04.974Z,100791.06
2022-09-30T17:34:36.913Z,100794.25
2022-09-30T17:37:08.839Z,100801.00
2022-09-30T17:39:40.820Z,100800.59
2022-09-30T17:42:34.593Z,100808.38
2022-09-30T17:45:06.920Z,100797.91
2022-09-30T17:47:41.389Z,100799.19
2022-09-30T17:50:14.370Z,100800.47
2022-09-30T17:52:46.428Z,100795.44
2022-09-30T17:55:18.540Z,100799.47
2022-09-30T17:57:51.439Z,100800.34
2022-09-30T18:00:23.697Z,100797.47
2022-09-30T18:02:55.706Z,100797.91
2022-09-30T18:05:27.815Z,100791.22
2022-09-30T18:08:00.098Z,100790.84
2022-09-30T18:10:32.511Z,100800.31
2022-09-30T18:13:04.977Z,100787.72
2022-09-30T18:15:38.835Z,100796.34
2022-09-30T18:18:11.026Z,100796.56
2022-09-30T18:20:44.887Z,100802.25
2022-09-30T18:23:19.009Z,100790.94
2022-09-30T18:25:52.031Z,100793.28
2022-09-30T18:28:24.025Z,100798.13
2022-09-30T18:30:55.928Z,100785.97
2022-09-30T18:33:28.004Z,100791.84
2022-09-30T18:36:00.953Z,100787.69
2022-09-30T18:38:35.759Z,100790.03
2022-09-30T18:41:07.580Z,100791.50
2022-09-30T18:43:40.029Z,100784.81
2022-09-30T18:46:13.955Z,100789.50
2022-09-30T18:48:49.976Z,100780.06
2022-09-30T18:51:23.286Z,100785.59
2022-09-30T18:53:57.817Z,100776.56
2022-09-30T18:56:32.094Z,100781.63
2022-09-30T18:59:05.132Z,100775.75
2022-09-30T19:01:37.657Z,100771.81
2022-09-30T19:04:11.011Z,100777.03
2022-09-30T19:06:44.378Z,100770.81
2022-09-30T19:09:16.648Z,100769.53
2022-09-30T19:11:49.998Z,100765.59
2022-09-30T19:14:23.820Z,100769.81
2022-09-30T19:16:56.448Z,100774.03
2022-09-30T19:19:29.481Z,100776.09
2022-09-30T19:22:02.974Z,100784.72
2022-09-30T19:24:35.918Z,100778.88
2022-09-30T19:27:07.841Z,100775.13
2022-09-30T19:29:40.591Z,100780.97
2022-09-30T19:32:12.895Z,100767.19
2022-09-30T19:34:53.223Z,100765.94
2022-09-30T19:37:31.774Z,100765.53
2022-09-30T19:40:18.930Z,100759.69
2022-09-30T19:42:55.900Z,100755.09
2022-09-30T19:45:28.433Z,100752.59
2022-09-30T19:48:00.978Z,100743.00
2022-09-30T19:50:34.728Z,100750.50
2022-09-30T19:53:07.023Z,100752.59
2022-09-30T19:55:48.781Z,100742.34
2022-09-30T19:58:22.386Z,100740.91
2022-09-30T20:00:56.206Z,100732.31
2022-09-30T20:03:30.644Z,100742.59
2022-09-30T20:06:09.101Z,100743.25
2022-09-30T20:08:42.799Z,100742.41
2022-09-30T20:11:17.081Z,100743.44
2022-09-30T20:13:51.089Z,100735.50
2022-09-30T20:16:23.707Z,100734.88
2022-09-30T20:18:55.775Z,100732.56
2022-09-30T20:21:28.017Z,100727.13
2022-09-30T20:24:01.762Z,100722.97
2022-09-30T20:26:34.294Z,100721.28
2022-09-30T20:29:08.866Z,100717.31
2022-09-30T20:31:42.424Z,100713.13
2022-09-30T20:34:16.247Z,100712.53
2022-09-30T20:36:48.464Z,100718.16
2022-09-30T20:39:20.419Z,100719.41
2022-09-30T20:41:52.306Z,100709.97
2022-09-30T20:44:24.284Z,100722.13
2022-09-30T20:46:57.882Z,100715.25
2022-09-30T20:49:30.021Z,100709.38
2022-09-30T20:52:03.972Z,100707.94
2022-09-30T20:54:35.903Z,100707.94
2022-09-30T20:57:08.241Z,100704.56
2022-09-30T20:59:40.402Z,100700.84
2022-09-30T21:02:14.027Z,100702.06
2022-09-30T21:04:49.518Z,100697.06
2022-09-30T21:07:25.314Z,100704.19
2022-09-30T21:09:57.465Z,100709.19
2022-09-30T21:12:30.981Z,100700.00
2022-09-30T21:15:03.302Z,100703.34
2022-09-30T21:17:35.239Z,100704.59
2022-09-30T21:20:07.707Z,100700.63
2022-09-30T21:22:39.856Z,100687.44
2022-09-30T21:25:13.048Z,100691.63
2022-09-30T21:27:46.593Z,100681.19
2022-09-30T21:30:19.234Z,100683.25
2022-09-30T21:32:51.322Z,100683.69
2022-09-30T21:35:23.286Z,100674.91
2022-09-30T21:37:55.314Z,100675.97
2022-09-30T21:40:28.267Z,100673.66
2022-09-30T21:43:00.273Z,100674.06
2022-09-30T21:45:32.140Z,100666.31
2022-09-30T21:48:06.223Z,100659.25
2022-09-30T21:50:38.207Z,100658.59
2022-09-30T21:53:10.277Z,100652.53
2022-09-30T21:55:43.149Z,100650.25
2022-09-30T21:58:15.711Z,100651.28
2022-09-30T22:00:47.703Z,100656.09
2022-09-30T22:03:21.275Z,100651.91
2022-09-30T22:05:54.007Z,100648.78
2022-09-30T22:08:26.552Z,100645.22
2022-09-30T22:10:58.416Z,100640.63
2022-09-30T22:13:31.464Z,100641.66
2022-09-30T22:16:09.537Z,100640.00
2022-09-30T22:18:42.601Z,100642.69
2022-09-30T22:21:15.001Z,100643.75
2022-09-30T22:23:47.786Z,100641.88
2022-09-30T22:26:22.378Z,100638.31
2022-09-30T22:28:57.094Z,100638.94
2022-09-30T22:31:31.110Z,100631.44
2022-09-30T22:34:23.971Z,100631.03
2022-09-30T22:37:14.595Z,100626.63
2022-09-30T22:39:46.481Z,100623.91
2022-09-30T22:42:18.320Z,100626.44
2022-09-30T22:44:50.421Z,100622.88
2022-09-30T22:47:22.392Z,100618.09
2022-09-30T22:49:54.469Z,100614.53
2022-09-30T22:52:26.449Z,100614.31
2022-09-30T22:54:58.305Z,100617.66
2022-09-30T22:57:31.098Z,100612.88
2022-09-30T23:00:03.403Z,100603.66
2022-09-30T23:02:35.516Z,100600.94
2022-09-30T23:05:08.001Z,100599.31
2022-09-30T23:07:40.806Z,100595.94
2022-09-30T23:10:12.802Z,100602.41
2022-09-30T23:12:46.091Z,100598.03
2022-09-30T23:15:18.213Z,100589.28
2022-09-30T23:17:50.153Z,100585.53
2022-09-30T23:20:22.086Z,100585.53
2022-09-30T23:22:54.090Z,100583.59
2022-09-30T23:25:26.109Z,100580.69
2022-09-30T23:27:58.021Z,100571.50
2022-09-30T23:30:30.064Z,100566.72
2022-09-30T23:33:02.049Z,100565.88
2022-09-30T23:35:33.902Z,100562.94
2022-09-30T23:38:05.792Z,100552.09
2022-09-30T23:40:46.115Z,100553.75
2022-09-30T23:43:19.175Z,100545.81
2022-09-30T23:45:51.113Z,100548.34
2022-09-30T23:48:23.387Z,100550.00
2022-09-30T23:50:55.326Z,100543.75
2022-09-30T23:53:27.645Z,100539.34
2022-09-30T23:56:04.529Z,100538.75
2022-09-30T23:58:36.993Z,100540.19
